Terminal Aerodrome Forecast
Issued by NWS Chicago, IL

Home | Current Version | Previous Version | Text Only | Print | Product List | Glossary On
Versions: 1 2 3 4 5 6 7 8 9 10 11 12 13 14 15 16 17 18 19 20 21 22 23 24 25 26 27 28 29 30 31 32
000
FTUS43 KLOT 190255 AAA
TAFRFD
TAF AMD
KRFD 190255Z 1903/1924 08012KT P6SM BKN080 BKN250
     FM191600 10012G17KT P6SM SCT050 BKN150
     FM192200 06011KT P6SM -SHRA OVC035=

USA.gov is the U.S. government's official web portal to all federal, state and local government web resources and services.